Tolar, New Mexico
Current Conditions -  °F | °C
As of 1:56 PM on Monday 22 Dec 2014 (Local Time) from K4MR Reporting Station
Clear Clear  
Wind Chill: 51°   Ceiling: Unl
Heat Index: 51°   Visibility: 10mi
Dew Point: 25°   Wind: 8mph
Humidity: 37%   Direction: 100°E
Pressure: 29.67"   Gusts: 18mph
Location:  34.3861°N, 104.044°W
Report Text: K4MR 222056Z AUTO 10007G16KT 060V120 10SM CLR 10/M04 A2967 RMK AO2 SLP021 T01031039 57041
Loading
Personal Weather Stations






























Interactive Weather Map New forecast layout! Learn more

10-Day Weather Forecast

Advertisements
Track Severe Weather on mobile